Eurocargo Venezia — IBKS — position and weather

sailwx.info

Track history (hours):
 
Tides and Currents Weather Stations Pressure Air Temp Water Temp Dewpoint Dewpoint Depression Visibility Wind Speed Wind Dir Waves Ship Positions

Eurocargo Venezia

Last reported at 2016-Feb-09 12:33 UTC. Time now 2016-Feb-09 15:56 UTC.
Position N 43°05' E 010°23'.

Length 200 m; draft 7.5 m.

Type: Cargo ship. MMSI: 247297200.

Date/timePositionNaut miles runAvg speedWind from/ knotsBaromVisibWave heightAir tempDewpointWater temp
2016-Feb-09 12:33N 43°05' E 010°23'1717.5
2016-Feb-09 11:33N 43°21' E 010°15'1212.0
2016-Feb-09 10:33N 43°33' E 010°18'2 1.7
2016-Feb-09 09:32N 43°35' E 010°19'0 0.0
2016-Feb-09 08:32N 43°35' E 010°19'0 0.0
2016-Feb-09 07:32N 43°35' E 010°19'0 0.0
2016-Feb-09 06:32N 43°35' E 010°19'0 0.0
2016-Feb-09 05:32N 43°35' E 010°19'0 0.0
2016-Feb-09 04:32N 43°35' E 010°19'0 0.0
2016-Feb-09 03:32N 43°35' E 010°19'0 0.0
2016-Feb-09 02:32N 43°35' E 010°19'0 0.0
2016-Feb-09 01:32N 43°35' E 010°19'3 2.7
2016-Feb-09 00:33N 43°32' E 010°17'1414.2
2016-Feb-08 23:33N 43°32' E 009°58'1818.3
2016-Feb-08 22:33N 43°45' E 009°40'1818.4
2016-Feb-08 21:33N 43°59' E 009°24'1918.5
2016-Feb-08 20:33N 44°13' E 009°07'1414.3
2016-Feb-08 19:33N 44°24' E 008°54'1 0.7
2016-Feb-08 18:30N 44°24' E 008°53'0 0.0
2016-Feb-08 17:33N 44°24' E 008°53'0 0.0
2016-Feb-08 16:33N 44°24' E 008°53'0 0.0
2016-Feb-08 15:30N 44°24' E 008°53'0 0.0
2016-Feb-08 14:33N 44°24' E 008°53'0 0.0
2016-Feb-08 13:33N 44°24' E 008°53'0 0.0
2016-Feb-08 12:33N 44°24' E 008°53'0 0.0
2016-Feb-08 11:30N 44°24' E 008°53'0 0.0
2016-Feb-08 10:33N 44°24' E 008°53'0 0.0
2016-Feb-08 09:24N 44°24' E 008°53'3 3.2
2016-Feb-08 08:33N 44°23' E 008°57'1414.3
2016-Feb-08 07:33N 44°12' E 009°09'1818.1
2016-Feb-08 06:34N 43°58' E 009°25'1818.1
2016-Feb-08 05:34N 43°44' E 009°42'1818.1
2016-Feb-08 04:33N 43°31' E 009°59'1818.4
2016-Feb-08 03:33N 43°16' E 010°12'22917.6
2016-Feb-07 14:33N 40°32' E 013°48'1817.9
2016-Feb-07 13:33N 40°18' E 014°02'9018.0
2016-Feb-07 08:33N 39°04' E 015°09'1818.0
2016-Feb-07 07:33N 38°49' E 015°22'1818.4
2016-Feb-07 06:33N 38°33' E 015°34'1817.5
2016-Feb-07 05:33N 38°17' E 015°43'1515.5
2016-Feb-07 04:34N 38°03' E 015°33'1716.9
2016-Feb-07 03:33N 37°48' E 015°23'102 6.8
2016-Feb-06 12:33N 36°11' E 014°46'1918.9
2016-Feb-06 11:33N 35°55' E 014°33'3 2.9
2016-Feb-06 10:33N 35°53' E 014°31'0 0.0
2016-Feb-06 09:21N 35°53' E 014°31'0 0.0
2016-Feb-06 08:33N 35°53' E 014°31'0 0.0
2016-Feb-06 07:30N 35°53' E 014°31'0 0.0
2016-Feb-06 06:33N 35°53' E 014°31'0 0.0
2016-Feb-06 05:33N 35°53' E 014°31'1 0.9
2016-Feb-06 04:22N 35°54' E 014°31'1214.0
2016-Feb-06 03:31N 36°04' E 014°40'127 7.9
2016-Feb-05 11:22N 38°04' E 015°32'1615.9
2016-Feb-05 10:22N 38°19' E 015°40'37217.9
2016-Feb-04 13:33N 43°03' E 010°25'1817.9
2016-Feb-04 12:33N 43°20' E 010°17'1312.7
2016-Feb-04 11:33N 43°33' E 010°17'2 2.2
2016-Feb-04 10:33N 43°35' E 010°19'0 0.0
2016-Feb-04 09:33N 43°35' E 010°19'0 0.0
2016-Feb-04 08:33N 43°35' E 010°19'0 0.0
2016-Feb-04 07:33N 43°35' E 010°19'0 0.0
2016-Feb-04 06:33N 43°35' E 010°19'0 0.4
2016-Feb-04 05:33N 43°34' E 010°19'6 5.6
2016-Feb-04 04:33N 43°30' E 010°13'6 5.9
2016-Feb-04 03:33N 43°30' E 010°05'1413.7
2016-Feb-04 02:34N 43°37' E 009°49'1716.9
2016-Feb-04 01:34N 43°50' E 009°34'1716.6
2016-Feb-04 00:34N 44°02' E 009°19'1717.1
2016-Feb-03 23:34N 44°15' E 009°03'1111.2
2016-Feb-03 22:32N 44°24' E 008°53'0 0.0
2016-Feb-03 21:29N 44°24' E 008°53'0 0.0
2016-Feb-03 20:32N 44°24' E 008°53'0 0.0
2016-Feb-03 19:32N 44°24' E 008°53'0 0.0
2016-Feb-03 18:32N 44°24' E 008°53'0 0.0
2016-Feb-03 17:32N 44°24' E 008°53'0 0.0
2016-Feb-03 16:32N 44°24' E 008°53'0 0.0
2016-Feb-03 15:32N 44°24' E 008°53'0 0.0
2016-Feb-03 14:32N 44°24' E 008°53'0 0.0
2016-Feb-03 13:32N 44°24' E 008°53'4 3.7
2016-Feb-03 12:33N 44°22' E 008°58'1515.3
2016-Feb-03 11:34N 44°10' E 009°11'1919.3
2016-Feb-03 10:34N 43°56' E 009°28'1919.1
2016-Feb-03 09:33N 43°41' E 009°45'1919.3
2016-Feb-03 08:33N 43°27' E 010°04'1918.6
2016-Feb-03 07:33N 43°11' E 010°16'35818.6
2016-Feb-02 12:22N 38°42' E 015°27'1518.6
2016-Feb-02 11:33N 38°28' E 015°36'1515.4
2016-Feb-02 10:33N 38°13' E 015°37'113 7.9
2016-Feb-01 20:15N 36°24' E 014°58'1418.4
2016-Feb-01 19:31N 36°13' E 014°48'1818.6
2016-Feb-01 18:33N 35°58' E 014°35'6 5.4
2016-Feb-01 17:24N 35°53' E 014°31'0 0.0
2016-Feb-01 16:27N 35°53' E 014°31'0 0.0
2016-Feb-01 15:33N 35°53' E 014°31'0 0.0
2016-Feb-01 14:27N 35°53' E 014°31'0 0.0
2016-Feb-01 12:33N 35°53' E 014°31'0 0.0
2016-Feb-01 09:33N 35°53' E 014°31'1 1.1
2016-Feb-01 08:31N 35°54' E 014°31'1515.6
2016-Feb-01 07:33N 36°06' E 014°43'13213.2
2016-Jan-31 21:32N 38°11' E 015°35'16218.1
2016-Jan-31 12:33N 40°31' E 013°49'19118.3
2016-Jan-31 02:04N 42°41' E 010°40'2918.2
2016-Jan-31 00:29N 43°06' E 010°20'1617.8
2016-Jan-30 23:33N 43°20' E 010°09'1817.6
2016-Jan-30 22:33N 43°34' E 009°54'1716.8
2016-Jan-30 21:33N 43°46' E 009°39'1717.0
2016-Jan-30 20:33N 43°59' E 009°23'1717.0
2016-Jan-30 19:33N 44°12' E 009°07'1514.8
2016-Jan-30 18:33N 44°24' E 008°55'1 1.3
2016-Jan-30 17:33N 44°24' E 008°53'0 0.0
2016-Jan-30 16:33N 44°24' E 008°53'0 0.0
2016-Jan-30 15:33N 44°24' E 008°53'0 0.0
2016-Jan-30 14:33N 44°24' E 008°53'0 0.0
2016-Jan-30 13:33N 44°24' E 008°53'  
Track history (hours):
 
Tides and Currents Weather Stations Pressure Air Temp Water Temp Dewpoint Dewpoint Depression Visibility Wind Speed Wind Dir Waves Ship Positions

Eurocargo Venezia

Last reported at 2016-Feb-09 12:33 UTC. Time now 2016-Feb-09 15:56 UTC.
Position N 43°05' E 010°23'.

Length 200 m; draft 7.5 m.

Type: Cargo ship. MMSI: 247297200.

Date/timePositionNaut miles runAvg speedWind from/ knotsBaromVisibWave heightAir tempDewpointWater temp
2016-Feb-09 12:33N 43°05' E 010°23'1717.5
2016-Feb-09 11:33N 43°21' E 010°15'1212.0
2016-Feb-09 10:33N 43°33' E 010°18'2 1.7
2016-Feb-09 09:32N 43°35' E 010°19'0 0.0
2016-Feb-09 08:32N 43°35' E 010°19'0 0.0
2016-Feb-09 07:32N 43°35' E 010°19'0 0.0
2016-Feb-09 06:32N 43°35' E 010°19'0 0.0
2016-Feb-09 05:32N 43°35' E 010°19'0 0.0
2016-Feb-09 04:32N 43°35' E 010°19'0 0.0
2016-Feb-09 03:32N 43°35' E 010°19'0 0.0
2016-Feb-09 02:32N 43°35' E 010°19'0 0.0
2016-Feb-09 01:32N 43°35' E 010°19'3 2.7
2016-Feb-09 00:33N 43°32' E 010°17'1414.2
2016-Feb-08 23:33N 43°32' E 009°58'1818.3
2016-Feb-08 22:33N 43°45' E 009°40'1818.4
2016-Feb-08 21:33N 43°59' E 009°24'1918.5
2016-Feb-08 20:33N 44°13' E 009°07'1414.3
2016-Feb-08 19:33N 44°24' E 008°54'1 0.7
2016-Feb-08 18:30N 44°24' E 008°53'0 0.0
2016-Feb-08 17:33N 44°24' E 008°53'0 0.0
2016-Feb-08 16:33N 44°24' E 008°53'0 0.0
2016-Feb-08 15:30N 44°24' E 008°53'0 0.0
2016-Feb-08 14:33N 44°24' E 008°53'0 0.0
2016-Feb-08 13:33N 44°24' E 008°53'0 0.0
2016-Feb-08 12:33N 44°24' E 008°53'0 0.0
2016-Feb-08 11:30N 44°24' E 008°53'0 0.0
2016-Feb-08 10:33N 44°24' E 008°53'0 0.0
2016-Feb-08 09:24N 44°24' E 008°53'3 3.2
2016-Feb-08 08:33N 44°23' E 008°57'1414.3
2016-Feb-08 07:33N 44°12' E 009°09'1818.1
2016-Feb-08 06:34N 43°58' E 009°25'1818.1
2016-Feb-08 05:34N 43°44' E 009°42'1818.1
2016-Feb-08 04:33N 43°31' E 009°59'1818.4
2016-Feb-08 03:33N 43°16' E 010°12'22917.6
2016-Feb-07 14:33N 40°32' E 013°48'1817.9
2016-Feb-07 13:33N 40°18' E 014°02'9018.0
2016-Feb-07 08:33N 39°04' E 015°09'1818.0
2016-Feb-07 07:33N 38°49' E 015°22'1818.4
2016-Feb-07 06:33N 38°33' E 015°34'1817.5
2016-Feb-07 05:33N 38°17' E 015°43'1515.5
2016-Feb-07 04:34N 38°03' E 015°33'1716.9
2016-Feb-07 03:33N 37°48' E 015°23'102 6.8
2016-Feb-06 12:33N 36°11' E 014°46'1918.9
2016-Feb-06 11:33N 35°55' E 014°33'3 2.9
2016-Feb-06 10:33N 35°53' E 014°31'0 0.0
2016-Feb-06 09:21N 35°53' E 014°31'0 0.0
2016-Feb-06 08:33N 35°53' E 014°31'0 0.0
2016-Feb-06 07:30N 35°53' E 014°31'0 0.0
2016-Feb-06 06:33N 35°53' E 014°31'0 0.0
2016-Feb-06 05:33N 35°53' E 014°31'1 0.9
2016-Feb-06 04:22N 35°54' E 014°31'1214.0
2016-Feb-06 03:31N 36°04' E 014°40'127 7.9
2016-Feb-05 11:22N 38°04' E 015°32'1615.9
2016-Feb-05 10:22N 38°19' E 015°40'37217.9
2016-Feb-04 13:33N 43°03' E 010°25'1817.9
2016-Feb-04 12:33N 43°20' E 010°17'1312.7
2016-Feb-04 11:33N 43°33' E 010°17'2 2.2
2016-Feb-04 10:33N 43°35' E 010°19'0 0.0
2016-Feb-04 09:33N 43°35' E 010°19'0 0.0
2016-Feb-04 08:33N 43°35' E 010°19'0 0.0
2016-Feb-04 07:33N 43°35' E 010°19'0 0.0
2016-Feb-04 06:33N 43°35' E 010°19'0 0.4
2016-Feb-04 05:33N 43°34' E 010°19'6 5.6
2016-Feb-04 04:33N 43°30' E 010°13'6 5.9
2016-Feb-04 03:33N 43°30' E 010°05'1413.7
2016-Feb-04 02:34N 43°37' E 009°49'1716.9
2016-Feb-04 01:34N 43°50' E 009°34'1716.6
2016-Feb-04 00:34N 44°02' E 009°19'1717.1
2016-Feb-03 23:34N 44°15' E 009°03'1111.2
2016-Feb-03 22:32N 44°24' E 008°53'0 0.0
2016-Feb-03 21:29N 44°24' E 008°53'0 0.0
2016-Feb-03 20:32N 44°24' E 008°53'0 0.0
2016-Feb-03 19:32N 44°24' E 008°53'0 0.0
2016-Feb-03 18:32N 44°24' E 008°53'0 0.0
2016-Feb-03 17:32N 44°24' E 008°53'0 0.0
2016-Feb-03 16:32N 44°24' E 008°53'0 0.0
2016-Feb-03 15:32N 44°24' E 008°53'0 0.0
2016-Feb-03 14:32N 44°24' E 008°53'0 0.0
2016-Feb-03 13:32N 44°24' E 008°53'4 3.7
2016-Feb-03 12:33N 44°22' E 008°58'1515.3
2016-Feb-03 11:34N 44°10' E 009°11'1919.3
2016-Feb-03 10:34N 43°56' E 009°28'1919.1
2016-Feb-03 09:33N 43°41' E 009°45'1919.3
2016-Feb-03 08:33N 43°27' E 010°04'1918.6
2016-Feb-03 07:33N 43°11' E 010°16'35818.6
2016-Feb-02 12:22N 38°42' E 015°27'1518.6
2016-Feb-02 11:33N 38°28' E 015°36'1515.4
2016-Feb-02 10:33N 38°13' E 015°37'113 7.9
2016-Feb-01 20:15N 36°24' E 014°58'1418.4
2016-Feb-01 19:31N 36°13' E 014°48'1818.6
2016-Feb-01 18:33N 35°58' E 014°35'6 5.4
2016-Feb-01 17:24N 35°53' E 014°31'0 0.0
2016-Feb-01 16:27N 35°53' E 014°31'0 0.0
2016-Feb-01 15:33N 35°53' E 014°31'0 0.0
2016-Feb-01 14:27N 35°53' E 014°31'0 0.0
2016-Feb-01 12:33N 35°53' E 014°31'0 0.0
2016-Feb-01 09:33N 35°53' E 014°31'1 1.1
2016-Feb-01 08:31N 35°54' E 014°31'1515.6
2016-Feb-01 07:33N 36°06' E 014°43'13213.2
2016-Jan-31 21:32N 38°11' E 015°35'16218.1
2016-Jan-31 12:33N 40°31' E 013°49'19118.3
2016-Jan-31 02:04N 42°41' E 010°40'2918.2
2016-Jan-31 00:29N 43°06' E 010°20'1617.8
2016-Jan-30 23:33N 43°20' E 010°09'1817.6
2016-Jan-30 22:33N 43°34' E 009°54'1716.8
2016-Jan-30 21:33N 43°46' E 009°39'1717.0
2016-Jan-30 20:33N 43°59' E 009°23'1717.0
2016-Jan-30 19:33N 44°12' E 009°07'1514.8
2016-Jan-30 18:33N 44°24' E 008°55'1 1.3
2016-Jan-30 17:33N 44°24' E 008°53'0 0.0
2016-Jan-30 16:33N 44°24' E 008°53'0 0.0
2016-Jan-30 15:33N 44°24' E 008°53'0 0.0
2016-Jan-30 14:33N 44°24' E 008°53'0 0.0
2016-Jan-30 13:33N 44°24' E 008°53'  

Dump ship's entire track history